createdAt,value
2018-01-16T00:00:35.296Z,993.37
2018-01-16T00:01:35.255Z,993.24
2018-01-16T00:02:35.211Z,993.23
2018-01-16T00:03:35.172Z,993.24
2018-01-16T00:04:35.127Z,993.10
2018-01-16T00:05:35.085Z,993.10
2018-01-16T00:06:35.038Z,993.19
2018-01-16T00:07:34.999Z,993.08
2018-01-16T00:08:34.956Z,993.08
2018-01-16T00:09:34.913Z,993.08
2018-01-16T00:10:34.879Z,993.02
2018-01-16T00:11:34.833Z,992.99
2018-01-16T00:12:34.788Z,992.92
2018-01-16T00:13:34.749Z,993.02
2018-01-16T00:14:34.724Z,993.00
2018-01-16T00:15:34.656Z,992.99
2018-01-16T00:16:34.612Z,992.91
2018-01-16T00:17:34.572Z,992.87
2018-01-16T00:18:34.524Z,992.84
2018-01-16T00:19:34.512Z,992.75
2018-01-16T00:20:34.456Z,992.74
2018-01-16T00:21:34.407Z,992.82
2018-01-16T00:22:34.372Z,992.59
2018-01-16T00:23:34.353Z,992.61
2018-01-16T00:24:34.297Z,992.71
2018-01-16T00:25:34.235Z,992.66
2018-01-16T00:26:34.188Z,992.70
2018-01-16T00:27:34.155Z,992.61
2018-01-16T00:28:34.110Z,992.60
2018-01-16T00:29:34.061Z,992.56
2018-01-16T00:30:34.017Z,992.56
2018-01-16T00:31:33.979Z,992.47
2018-01-16T00:32:33.944Z,992.50
2018-01-16T00:33:33.896Z,992.41
2018-01-16T00:34:33.864Z,992.34
2018-01-16T00:35:33.807Z,992.35
2018-01-16T00:36:33.761Z,992.33
2018-01-16T00:37:33.720Z,992.27
2018-01-16T00:38:33.673Z,992.33
2018-01-16T00:39:33.626Z,992.28
2018-01-16T00:40:33.588Z,992.30
2018-01-16T00:41:33.545Z,992.26
2018-01-16T00:42:33.503Z,992.23
2018-01-16T00:43:33.457Z,992.17
2018-01-16T00:44:33.413Z,992.13
2018-01-16T00:45:33.383Z,992.14
2018-01-16T00:46:33.330Z,992.15
2018-01-16T00:47:33.287Z,992.03
2018-01-16T00:48:33.242Z,992.03
2018-01-16T00:49:33.205Z,991.92
2018-01-16T00:50:33.159Z,991.92
2018-01-16T00:51:33.113Z,992.05
2018-01-16T00:52:33.073Z,991.97
2018-01-16T00:53:33.037Z,991.80
2018-01-16T00:54:33.014Z,991.83
2018-01-16T00:55:32.952Z,991.76
2018-01-16T00:56:32.902Z,991.80
2018-01-16T00:57:32.865Z,991.81
2018-01-16T00:58:32.872Z,991.80
2018-01-16T00:59:32.784Z,991.72
2018-01-16T01:00:32.728Z,991.70
2018-01-16T01:01:32.686Z,991.70
2018-01-16T01:02:32.650Z,991.63
2018-01-16T01:03:32.643Z,991.68
2018-01-16T01:04:32.558Z,991.68
2018-01-16T01:05:32.530Z,991.72
2018-01-16T01:06:32.479Z,991.70
2018-01-16T01:07:32.428Z,991.64
2018-01-16T01:08:32.394Z,991.50
2018-01-16T01:09:32.343Z,991.59
2018-01-16T01:10:32.300Z,991.46
2018-01-16T01:11:32.264Z,991.47
2018-01-16T01:12:32.214Z,991.47
2018-01-16T01:13:32.172Z,991.37
2018-01-16T01:14:32.134Z,991.49
2018-01-16T01:15:32.089Z,991.44
2018-01-16T01:16:32.042Z,991.44
2018-01-16T01:17:32.002Z,991.26
2018-01-16T01:18:31.956Z,991.37
2018-01-16T01:19:31.917Z,991.35
2018-01-16T01:20:31.874Z,991.34
2018-01-16T01:21:31.826Z,991.31
2018-01-16T01:22:31.790Z,991.26
2018-01-16T01:23:31.749Z,991.15
2018-01-16T01:24:31.705Z,991.22
2018-01-16T01:25:31.658Z,991.22
2018-01-16T01:26:31.613Z,991.22
2018-01-16T01:27:31.573Z,991.08
2018-01-16T01:28:31.531Z,990.99
2018-01-16T01:29:31.495Z,991.03
2018-01-16T01:30:31.444Z,990.99
2018-01-16T01:31:31.399Z,990.96
2018-01-16T01:32:31.362Z,990.89
2018-01-16T01:33:31.325Z,990.79
2018-01-16T01:34:31.274Z,990.82
2018-01-16T01:35:31.232Z,990.88
2018-01-16T01:36:31.187Z,990.86
2018-01-16T01:37:31.146Z,990.86
2018-01-16T01:38:31.101Z,990.79
2018-01-16T01:39:31.061Z,990.87
2018-01-16T01:40:31.012Z,990.85
2018-01-16T01:41:30.976Z,990.81
2018-01-16T01:42:30.932Z,990.70
2018-01-16T01:43:30.882Z,990.53
2018-01-16T01:44:30.841Z,990.57
2018-01-16T01:45:30.818Z,990.63
2018-01-16T01:46:30.759Z,990.66
2018-01-16T01:47:30.715Z,990.60
2018-01-16T01:48:30.669Z,990.63
2018-01-16T01:49:30.626Z,990.47
2018-01-16T01:50:30.582Z,990.48
2018-01-16T01:51:30.540Z,990.54
2018-01-16T01:52:30.501Z,990.47
2018-01-16T01:53:30.461Z,990.43
2018-01-16T01:54:30.412Z,990.46
2018-01-16T01:55:30.368Z,990.46
2018-01-16T01:56:30.324Z,990.33
2018-01-16T01:57:30.282Z,990.34
2018-01-16T01:58:30.240Z,990.37
2018-01-16T01:59:30.197Z,990.30
2018-01-16T02:00:30.160Z,990.20
2018-01-16T02:01:30.111Z,990.27
2018-01-16T02:02:30.070Z,990.30
2018-01-16T02:03:30.024Z,990.20
2018-01-16T02:04:29.979Z,990.11
2018-01-16T02:05:29.947Z,990.08
2018-01-16T02:06:29.897Z,990.07
2018-01-16T02:07:29.859Z,990.04
2018-01-16T02:08:29.815Z,990.06
2018-01-16T02:09:29.767Z,990.08
2018-01-16T02:10:29.791Z,990.01
2018-01-16T02:11:29.733Z,989.93
2018-01-16T02:12:29.648Z,989.93
2018-01-16T02:13:29.621Z,989.93
2018-01-16T02:14:29.555Z,989.86
2018-01-16T02:15:29.510Z,989.93
2018-01-16T02:16:29.466Z,989.95
2018-01-16T02:17:29.433Z,989.88
2018-01-16T02:18:29.382Z,989.85
2018-01-16T02:19:29.345Z,989.77
2018-01-16T02:20:29.297Z,989.83
2018-01-16T02:21:29.254Z,989.75
2018-01-16T02:22:29.208Z,989.74
2018-01-16T02:23:29.168Z,989.66
2018-01-16T02:24:29.123Z,989.66
2018-01-16T02:25:29.110Z,989.66
2018-01-16T02:26:29.036Z,989.64
2018-01-16T02:27:29.002Z,989.56
2018-01-16T02:28:28.971Z,989.61
2018-01-16T02:29:28.918Z,989.65
2018-01-16T02:30:28.871Z,989.58
2018-01-16T02:31:28.835Z,989.56
2018-01-16T02:32:28.780Z,989.50
2018-01-16T02:33:28.738Z,989.52
2018-01-16T02:34:28.696Z,989.46
2018-01-16T02:35:28.660Z,989.41
2018-01-16T02:36:28.607Z,989.36
2018-01-16T02:37:28.568Z,989.37
2018-01-16T02:38:28.522Z,989.35
2018-01-16T02:39:28.478Z,989.26
2018-01-16T02:40:28.437Z,989.36
2018-01-16T02:41:28.394Z,989.18
2018-01-16T02:42:28.349Z,989.20
2018-01-16T02:43:28.307Z,989.13
2018-01-16T02:44:28.265Z,989.15
2018-01-16T02:45:28.221Z,989.12
2018-01-16T02:46:28.178Z,989.19
2018-01-16T02:47:28.134Z,989.05
2018-01-16T02:48:28.090Z,989.10
2018-01-16T02:49:28.048Z,989.16
2018-01-16T02:50:28.006Z,989.06
2018-01-16T02:51:27.962Z,989.06
2018-01-16T02:52:27.919Z,989.06
2018-01-16T02:53:27.879Z,989.12
2018-01-16T02:54:27.835Z,989.08
2018-01-16T02:55:27.788Z,989.09
2018-01-16T02:56:27.763Z,988.99
2018-01-16T02:57:27.704Z,989.07
2018-01-16T02:58:27.660Z,989.06
2018-01-16T02:59:27.617Z,988.96
2018-01-16T03:00:27.575Z,988.95
2018-01-16T03:01:27.532Z,988.90
2018-01-16T03:02:27.505Z,988.88
2018-01-16T03:03:27.443Z,988.79
2018-01-16T03:04:27.402Z,988.77
2018-01-16T03:05:27.364Z,988.80
2018-01-16T03:06:27.325Z,988.80
2018-01-16T03:07:27.278Z,988.81
2018-01-16T03:08:27.229Z,988.76
2018-01-16T03:09:27.186Z,988.79
2018-01-16T03:10:27.151Z,988.79
2018-01-16T03:11:27.099Z,988.75
2018-01-16T03:12:27.070Z,988.61
2018-01-16T03:13:27.035Z,988.54
2018-01-16T03:14:26.974Z,988.51
2018-01-16T03:15:26.928Z,988.76
2018-01-16T03:16:26.884Z,988.61
2018-01-16T03:17:26.841Z,988.66
2018-01-16T03:18:26.800Z,988.61
2018-01-16T03:19:26.754Z,988.64
2018-01-16T03:20:26.716Z,988.68
2018-01-16T03:21:26.675Z,988.67
2018-01-16T03:22:26.634Z,988.63
2018-01-16T03:23:26.582Z,988.61
2018-01-16T03:24:26.540Z,988.51
2018-01-16T03:25:26.506Z,988.53
2018-01-16T03:26:26.459Z,988.68
2018-01-16T03:27:26.412Z,988.50
2018-01-16T03:28:26.368Z,988.49
2018-01-16T03:29:26.323Z,988.46
2018-01-16T03:30:26.286Z,988.52
2018-01-16T03:31:26.240Z,988.48
2018-01-16T03:32:26.195Z,988.53
2018-01-16T03:33:26.152Z,988.50
2018-01-16T03:34:26.108Z,988.49
2018-01-16T03:35:26.063Z,988.24
2018-01-16T03:36:26.022Z,988.36
2018-01-16T03:37:25.978Z,988.41
2018-01-16T03:38:25.937Z,988.43
2018-01-16T03:39:25.891Z,988.36
2018-01-16T03:40:25.848Z,988.31
2018-01-16T03:41:25.806Z,988.26
2018-01-16T03:42:25.781Z,988.23
2018-01-16T03:43:25.721Z,988.26
2018-01-16T03:44:25.675Z,988.23
2018-01-16T03:45:25.634Z,988.30
2018-01-16T03:46:25.592Z,988.27
2018-01-16T03:47:25.549Z,988.27
2018-01-16T03:48:25.506Z,988.11
2018-01-16T03:49:25.461Z,988.15
2018-01-16T03:50:25.420Z,988.14
2018-01-16T03:51:25.374Z,988.18
2018-01-16T03:52:25.333Z,988.17
2018-01-16T03:53:25.298Z,988.11
2018-01-16T03:54:25.249Z,988.07
2018-01-16T03:55:25.204Z,988.04
2018-01-16T03:56:25.159Z,988.02
2018-01-16T03:57:25.117Z,988.01
2018-01-16T03:58:25.074Z,987.89
2018-01-16T03:59:25.031Z,987.89
2018-01-16T04:00:24.987Z,987.92
2018-01-16T04:01:24.945Z,987.83
2018-01-16T04:02:24.920Z,987.82
2018-01-16T04:03:24.856Z,987.82
2018-01-16T04:04:24.820Z,987.84
2018-01-16T04:05:24.773Z,987.88
2018-01-16T04:06:24.729Z,987.81
2018-01-16T04:07:24.686Z,987.74
2018-01-16T04:08:24.648Z,987.76
2018-01-16T04:09:24.602Z,987.85
2018-01-16T04:10:24.556Z,987.74
2018-01-16T04:11:24.512Z,987.74
2018-01-16T04:12:24.471Z,987.72
2018-01-16T04:13:24.428Z,987.59
2018-01-16T04:14:24.394Z,987.71
2018-01-16T04:15:24.339Z,987.76
2018-01-16T04:16:24.299Z,987.83
2018-01-16T04:17:24.254Z,987.82
2018-01-16T04:18:24.214Z,987.86
2018-01-16T04:19:24.170Z,987.75
2018-01-16T04:20:24.125Z,987.76
2018-01-16T04:21:24.084Z,987.73
2018-01-16T04:22:24.040Z,987.73
2018-01-16T04:23:23.998Z,987.69
2018-01-16T04:24:23.956Z,987.71
2018-01-16T04:25:23.911Z,987.72
2018-01-16T04:26:23.869Z,987.74
2018-01-16T04:27:23.829Z,987.66
2018-01-16T04:28:23.783Z,987.61
2018-01-16T04:29:23.749Z,987.63
2018-01-16T04:30:23.696Z,987.66
2018-01-16T04:31:23.656Z,987.66
2018-01-16T04:32:23.618Z,987.56
2018-01-16T04:33:23.567Z,987.55
2018-01-16T04:34:23.526Z,987.60
2018-01-16T04:35:23.482Z,987.65
2018-01-16T04:36:23.437Z,987.72
2018-01-16T04:37:23.394Z,987.84
2018-01-16T04:38:23.365Z,987.79
2018-01-16T04:39:23.310Z,987.77
2018-01-16T04:40:23.276Z,987.77
2018-01-16T04:41:23.235Z,987.72
2018-01-16T04:42:23.186Z,987.57
2018-01-16T04:43:23.136Z,987.47
2018-01-16T04:44:23.096Z,987.56
2018-01-16T04:45:23.052Z,987.53
2018-01-16T04:46:23.054Z,987.65
2018-01-16T04:47:22.967Z,987.64
2018-01-16T04:48:22.927Z,987.66
2018-01-16T04:49:22.888Z,987.61
2018-01-16T04:50:22.841Z,987.50
2018-01-16T04:51:22.798Z,987.47
2018-01-16T04:52:22.756Z,987.34
2018-01-16T04:53:22.712Z,987.27
2018-01-16T04:54:22.716Z,987.45
2018-01-16T04:55:22.636Z,987.58
2018-01-16T04:56:22.582Z,987.54
2018-01-16T04:57:22.538Z,987.52
2018-01-16T04:58:22.495Z,987.47
2018-01-16T04:59:22.475Z,987.36
2018-01-16T05:00:22.409Z,987.33
2018-01-16T05:01:22.368Z,987.25
2018-01-16T05:02:22.323Z,987.24
2018-01-16T05:03:22.280Z,987.25
2018-01-16T05:04:22.240Z,987.25
2018-01-16T05:05:22.198Z,987.37
2018-01-16T05:06:22.155Z,987.39
2018-01-16T05:07:22.130Z,987.33
2018-01-16T05:08:22.070Z,987.25
2018-01-16T05:09:22.033Z,987.21
2018-01-16T05:10:21.983Z,987.11
2018-01-16T05:11:21.941Z,987.22
2018-01-16T05:12:21.906Z,987.28
2018-01-16T05:13:21.863Z,987.34
2018-01-16T05:14:21.812Z,987.36
2018-01-16T05:15:21.765Z,987.38
2018-01-16T05:16:21.735Z,987.35
2018-01-16T05:17:21.694Z,987.28
2018-01-16T05:18:21.642Z,987.16
2018-01-16T05:19:21.622Z,987.27
2018-01-16T05:20:21.558Z,987.33
2018-01-16T05:21:21.515Z,987.27
2018-01-16T05:22:21.472Z,987.27
2018-01-16T05:23:21.428Z,987.22
2018-01-16T05:24:21.385Z,987.19
2018-01-16T05:25:21.344Z,987.22
2018-01-16T05:26:21.300Z,987.23
2018-01-16T05:27:21.256Z,987.27
2018-01-16T05:28:21.216Z,987.35
2018-01-16T05:29:21.171Z,987.30
2018-01-16T05:30:21.133Z,987.26
2018-01-16T05:31:21.087Z,987.29
2018-01-16T05:32:21.046Z,987.26
2018-01-16T05:33:21.002Z,987.29
2018-01-16T05:34:20.961Z,987.27
2018-01-16T05:35:20.917Z,987.28
2018-01-16T05:36:20.875Z,987.32
2018-01-16T05:37:20.831Z,987.28
2018-01-16T05:38:20.796Z,987.34
2018-01-16T05:39:20.771Z,987.25
2018-01-16T05:40:20.704Z,987.24
2018-01-16T05:41:20.664Z,987.32
2018-01-16T05:42:20.620Z,987.29
2018-01-16T05:43:20.576Z,987.29
2018-01-16T05:44:20.535Z,987.29
2018-01-16T05:45:20.501Z,987.32
2018-01-16T05:46:20.451Z,987.26
2018-01-16T05:47:20.407Z,987.30
2018-01-16T05:48:20.365Z,987.31
2018-01-16T05:49:20.322Z,987.36
2018-01-16T05:50:20.306Z,987.35
2018-01-16T05:51:20.235Z,987.35
2018-01-16T05:52:20.195Z,987.36
2018-01-16T05:53:20.152Z,987.33
2018-01-16T05:54:20.110Z,987.26
2018-01-16T05:55:20.066Z,987.24
2018-01-16T05:56:20.024Z,987.28
2018-01-16T05:57:19.983Z,987.26
2018-01-16T05:58:19.941Z,987.28
2018-01-16T05:59:19.902Z,987.26
2018-01-16T06:00:19.864Z,987.24
2018-01-16T06:01:19.814Z,987.20
2018-01-16T06:02:19.778Z,987.22
2018-01-16T06:03:19.729Z,987.20
2018-01-16T06:04:19.687Z,987.22
2018-01-16T06:05:19.654Z,987.22
2018-01-16T06:06:19.608Z,987.20
2018-01-16T06:07:19.562Z,987.21
2018-01-16T06:08:19.517Z,987.21
2018-01-16T06:09:19.475Z,987.21
2018-01-16T06:10:19.434Z,987.23
2018-01-16T06:11:19.389Z,987.19
2018-01-16T06:12:19.350Z,987.21
2018-01-16T06:13:19.354Z,987.22
2018-01-16T06:14:19.268Z,987.11
2018-01-16T06:15:19.219Z,987.24
2018-01-16T06:16:19.178Z,987.21
2018-01-16T06:17:19.136Z,987.20
2018-01-16T06:18:19.094Z,987.24
2018-01-16T06:19:19.050Z,987.29
2018-01-16T06:20:19.023Z,987.32
2018-01-16T06:21:18.967Z,987.25
2018-01-16T06:22:18.932Z,987.31
2018-01-16T06:23:18.882Z,987.26
2018-01-16T06:24:18.840Z,987.29
2018-01-16T06:25:18.806Z,987.24
2018-01-16T06:26:18.754Z,987.19
2018-01-16T06:27:18.718Z,987.18
2018-01-16T06:28:18.671Z,987.18
2018-01-16T06:29:18.627Z,987.16
2018-01-16T06:30:18.588Z,987.22
2018-01-16T06:31:18.543Z,987.21
2018-01-16T06:32:18.501Z,987.18
2018-01-16T06:33:18.459Z,987.24
2018-01-16T06:34:18.418Z,987.11
2018-01-16T06:35:18.378Z,987.10
2018-01-16T06:36:18.332Z,987.10
2018-01-16T06:37:18.316Z,987.05
2018-01-16T06:38:18.249Z,987.15
2018-01-16T06:39:18.212Z,987.10
2018-01-16T06:40:18.164Z,987.06
2018-01-16T06:41:18.123Z,987.04
2018-01-16T06:42:18.081Z,987.05
2018-01-16T06:43:18.037Z,987.12
2018-01-16T06:44:17.995Z,987.11
2018-01-16T06:45:17.953Z,987.12
2018-01-16T06:46:17.910Z,987.08
2018-01-16T06:47:17.870Z,987.11
2018-01-16T06:48:17.827Z,987.12
2018-01-16T06:49:17.795Z,987.12
2018-01-16T06:50:17.743Z,987.12
2018-01-16T06:51:17.698Z,987.15
2018-01-16T06:52:17.656Z,987.15
2018-01-16T06:53:17.624Z,987.12
2018-01-16T06:54:17.573Z,987.08
2018-01-16T06:55:17.530Z,987.05
2018-01-16T06:56:17.490Z,987.07
2018-01-16T06:57:17.449Z,987.06
2018-01-16T06:58:17.406Z,987.06
2018-01-16T06:59:17.363Z,987.03
2018-01-16T07:00:17.322Z,987.00
2018-01-16T07:01:17.278Z,986.99
2018-01-16T07:02:17.243Z,987.00
2018-01-16T07:03:17.201Z,986.95
2018-01-16T07:04:17.193Z,986.89
2018-01-16T07:05:17.112Z,986.91
2018-01-16T07:06:17.073Z,986.94
2018-01-16T07:07:17.032Z,986.96
2018-01-16T07:08:16.983Z,986.99
2018-01-16T07:09:16.940Z,987.03
2018-01-16T07:10:16.904Z,987.08
2018-01-16T07:11:16.865Z,987.10
2018-01-16T07:12:16.815Z,987.08
2018-01-16T07:13:16.827Z,987.15
2018-01-16T07:14:16.734Z,987.12
2018-01-16T07:15:16.707Z,987.11
2018-01-16T07:16:16.688Z,987.14
2018-01-16T07:17:16.659Z,987.10
2018-01-16T07:18:16.611Z,987.11
2018-01-16T07:19:16.530Z,987.10
2018-01-16T07:20:16.545Z,987.14
2018-01-16T07:21:16.444Z,987.11
2018-01-16T07:22:16.401Z,987.14
2018-01-16T07:23:16.358Z,987.19
2018-01-16T07:24:16.320Z,987.19
2018-01-16T07:25:16.298Z,987.19
2018-01-16T07:26:16.234Z,987.22
2018-01-16T07:27:16.201Z,987.17
2018-01-16T07:28:16.148Z,987.15
2018-01-16T07:29:16.101Z,987.16
2018-01-16T07:30:16.058Z,987.15
2018-01-16T07:31:16.017Z,987.08
2018-01-16T07:32:15.977Z,987.07
2018-01-16T07:33:15.939Z,987.07
2018-01-16T07:34:15.893Z,987.09
2018-01-16T07:35:15.846Z,987.05
2018-01-16T07:36:15.804Z,987.07
2018-01-16T07:37:15.762Z,987.09
2018-01-16T07:38:15.720Z,987.09
2018-01-16T07:39:15.675Z,987.06
2018-01-16T07:40:15.645Z,987.06
2018-01-16T07:41:15.598Z,987.09
2018-01-16T07:42:15.553Z,987.14
2018-01-16T07:43:15.520Z,987.13
2018-01-16T07:44:15.471Z,987.12
2018-01-16T07:45:15.428Z,987.12
2018-01-16T07:46:15.385Z,987.12
2018-01-16T07:47:15.347Z,987.09
2018-01-16T07:48:15.299Z,987.08
2018-01-16T07:49:15.261Z,987.06
2018-01-16T07:50:15.226Z,987.08
2018-01-16T07:51:15.174Z,987.01
2018-01-16T07:52:15.132Z,986.93
2018-01-16T07:53:15.101Z,986.96
2018-01-16T07:54:15.049Z,986.86
2018-01-16T07:55:15.005Z,986.82
2018-01-16T07:56:14.965Z,986.84
2018-01-16T07:57:14.921Z,986.82
2018-01-16T07:58:14.884Z,986.82
2018-01-16T07:59:14.839Z,986.83
2018-01-16T08:00:14.801Z,986.89
2018-01-16T08:01:14.763Z,986.92
2018-01-16T08:02:14.720Z,986.97
2018-01-16T08:03:14.672Z,986.98
2018-01-16T08:04:14.639Z,986.98
2018-01-16T08:05:14.594Z,986.95
2018-01-16T08:06:14.546Z,986.93
2018-01-16T08:07:14.508Z,986.94
2018-01-16T08:08:14.463Z,986.95
2018-01-16T08:09:14.425Z,986.92
2018-01-16T08:10:14.381Z,986.90
2018-01-16T08:11:14.339Z,986.86
2018-01-16T08:12:14.297Z,986.89
2018-01-16T08:13:14.256Z,986.88
2018-01-16T08:14:14.213Z,986.87
2018-01-16T08:15:14.176Z,986.83
2018-01-16T08:16:14.132Z,986.86
2018-01-16T08:17:14.095Z,986.81
2018-01-16T08:18:14.048Z,986.80
2018-01-16T08:19:14.007Z,986.84
2018-01-16T08:20:13.966Z,986.79
2018-01-16T08:21:13.948Z,986.77
2018-01-16T08:22:13.885Z,986.74
2018-01-16T08:23:13.851Z,986.73
2018-01-16T08:24:13.799Z,986.76
2018-01-16T08:25:13.759Z,986.76
2018-01-16T08:26:13.718Z,986.73
2018-01-16T08:27:13.674Z,986.69
2018-01-16T08:28:13.635Z,986.75
2018-01-16T08:29:13.591Z,986.78
2018-01-16T08:30:13.557Z,986.87
2018-01-16T08:31:13.511Z,986.88
2018-01-16T08:32:13.472Z,986.89
2018-01-16T08:33:13.429Z,986.85
2018-01-16T08:34:13.389Z,986.83
2018-01-16T08:35:13.346Z,986.78
2018-01-16T08:36:13.305Z,986.83
2018-01-16T08:37:13.263Z,986.81
2018-01-16T08:38:13.242Z,986.83
2018-01-16T08:39:13.182Z,986.83
2018-01-16T08:40:13.145Z,986.87
2018-01-16T08:41:13.100Z,986.85
2018-01-16T08:42:13.079Z,986.81
2018-01-16T08:43:13.019Z,986.79
2018-01-16T08:44:12.984Z,986.83
2018-01-16T08:45:12.981Z,986.81
2018-01-16T08:46:12.897Z,986.79
2018-01-16T08:47:12.861Z,986.84
2018-01-16T08:48:12.814Z,986.79
2018-01-16T08:49:12.785Z,986.82
2018-01-16T08:50:12.731Z,986.79
2018-01-16T08:51:12.694Z,986.80
2018-01-16T08:52:12.653Z,986.80
2018-01-16T08:53:12.632Z,986.80
2018-01-16T08:54:12.582Z,986.77
2018-01-16T08:55:12.529Z,986.77
2018-01-16T08:56:12.515Z,986.75
2018-01-16T08:57:12.448Z,986.77
2018-01-16T08:58:12.404Z,986.80
2018-01-16T08:59:12.368Z,986.81
2018-01-16T09:00:12.344Z,986.80
2018-01-16T09:01:12.294Z,986.80
2018-01-16T09:02:12.243Z,986.84
2018-01-16T09:03:12.221Z,986.81
2018-01-16T09:04:12.174Z,986.79
2018-01-16T09:05:12.119Z,986.76
2018-01-16T09:06:12.100Z,986.75
2018-01-16T09:07:12.049Z,986.74
2018-01-16T09:08:12.000Z,986.72
2018-01-16T09:09:11.957Z,986.71
2018-01-16T09:10:11.920Z,986.66
2018-01-16T09:11:11.879Z,986.68
2018-01-16T09:12:11.834Z,986.68
2018-01-16T09:13:11.797Z,986.66
2018-01-16T09:14:11.763Z,986.72
2018-01-16T09:15:11.723Z,986.70
2018-01-16T09:16:11.673Z,986.68
2018-01-16T09:17:11.645Z,986.66
2018-01-16T09:18:11.592Z,986.67
2018-01-16T09:19:11.551Z,986.63
2018-01-16T09:20:11.515Z,986.61
2018-01-16T09:21:11.472Z,986.60
2018-01-16T09:22:11.446Z,986.60
2018-01-16T09:23:11.390Z,986.61
2018-01-16T09:24:11.351Z,986.59
2018-01-16T09:25:11.309Z,986.59
2018-01-16T09:26:11.273Z,986.58
2018-01-16T09:27:11.225Z,986.59
2018-01-16T09:28:11.193Z,986.56
2018-01-16T09:29:11.155Z,986.57
2018-01-16T09:30:11.107Z,986.55
2018-01-16T09:31:11.068Z,986.54
2018-01-16T09:32:11.025Z,986.59
2018-01-16T09:33:10.989Z,986.51
2018-01-16T09:34:10.944Z,986.49
2018-01-16T09:35:10.902Z,986.51
2018-01-16T09:36:10.864Z,986.49
2018-01-16T09:37:10.821Z,986.49
2018-01-16T09:38:10.787Z,986.51
2018-01-16T09:39:10.759Z,986.46
2018-01-16T09:40:10.712Z,986.53
2018-01-16T09:41:10.675Z,986.55
2018-01-16T09:42:10.633Z,986.57
2018-01-16T09:43:10.588Z,986.54
2018-01-16T09:44:10.553Z,986.57
2018-01-16T09:45:10.498Z,986.58
2018-01-16T09:46:10.469Z,986.48
2018-01-16T09:47:10.438Z,986.52
2018-01-16T09:48:10.400Z,986.54
2018-01-16T09:49:10.392Z,986.55
2018-01-16T09:50:10.332Z,986.49
2018-01-16T09:51:10.269Z,986.47
2018-01-16T09:52:10.219Z,986.41
2018-01-16T09:53:10.185Z,986.35
2018-01-16T09:54:10.143Z,986.30
2018-01-16T09:55:10.103Z,986.30
2018-01-16T09:56:10.066Z,986.34
2018-01-16T09:57:10.020Z,986.28
2018-01-16T09:58:10.003Z,986.27
2018-01-16T09:59:09.937Z,986.36
2018-01-16T10:00:09.899Z,986.32
2018-01-16T10:01:09.861Z,986.32
2018-01-16T10:02:09.823Z,986.25
2018-01-16T10:03:09.790Z,986.27
2018-01-16T10:04:09.743Z,986.24
2018-01-16T10:05:09.705Z,986.23
2018-01-16T10:06:09.662Z,986.24
2018-01-16T10:07:09.628Z,986.22
2018-01-16T10:08:09.585Z,986.25
2018-01-16T10:09:09.544Z,986.23
2018-01-16T10:10:09.510Z,986.21
2018-01-16T10:11:09.463Z,986.21
2018-01-16T10:12:09.466Z,986.21
2018-01-16T10:13:09.385Z,986.19
2018-01-16T10:14:09.345Z,986.20
2018-01-16T10:15:09.312Z,986.19
2018-01-16T10:16:09.265Z,986.21
2018-01-16T10:17:09.232Z,986.20
2018-01-16T10:18:09.189Z,986.20
2018-01-16T10:19:09.152Z,986.17
2018-01-16T10:20:09.150Z,986.18
2018-01-16T10:21:09.066Z,986.10
2018-01-16T10:22:09.030Z,986.16
2018-01-16T10:23:08.986Z,986.21
2018-01-16T10:24:08.947Z,986.23
2018-01-16T10:25:08.918Z,986.25
2018-01-16T10:26:08.869Z,986.24
2018-01-16T10:27:08.829Z,986.21
2018-01-16T10:28:08.796Z,986.15
2018-01-16T10:29:08.753Z,986.18
2018-01-16T10:30:08.721Z,986.20
2018-01-16T10:31:08.679Z,986.21
2018-01-16T10:32:08.635Z,986.29
2018-01-16T10:33:08.592Z,986.27
2018-01-16T10:34:08.556Z,986.28
2018-01-16T10:35:08.510Z,986.24
2018-01-16T10:36:08.474Z,986.21
2018-01-16T10:37:08.437Z,986.23
2018-01-16T10:38:08.403Z,986.17
2018-01-16T10:39:08.355Z,986.19
2018-01-16T10:40:08.311Z,986.18
2018-01-16T10:41:08.273Z,986.19
2018-01-16T10:42:08.232Z,986.25
2018-01-16T10:43:08.190Z,986.12
2018-01-16T10:44:08.174Z,986.22
2018-01-16T10:45:08.112Z,986.12
2018-01-16T10:46:08.069Z,986.23
2018-01-16T10:47:08.036Z,986.23
2018-01-16T10:48:07.991Z,986.22
2018-01-16T10:49:07.949Z,986.21
2018-01-16T10:50:07.920Z,986.20
2018-01-16T10:51:07.872Z,986.19
2018-01-16T10:52:07.827Z,986.19
2018-01-16T10:53:07.825Z,986.18
2018-01-16T10:54:07.750Z,986.16
2018-01-16T10:55:07.706Z,986.18
2018-01-16T10:56:07.666Z,986.22
2018-01-16T10:57:07.634Z,986.19
2018-01-16T10:58:07.587Z,986.20
2018-01-16T10:59:07.554Z,986.14
2018-01-16T11:00:07.508Z,986.15
2018-01-16T11:01:07.470Z,986.16
2018-01-16T11:02:07.424Z,986.07
2018-01-16T11:03:07.404Z,986.07
2018-01-16T11:04:07.348Z,986.04
2018-01-16T11:05:07.302Z,986.08
2018-01-16T11:06:07.262Z,986.08
2018-01-16T11:07:07.223Z,986.13
2018-01-16T11:08:07.184Z,986.16
2018-01-16T11:09:07.139Z,986.14
2018-01-16T11:10:07.099Z,986.15
2018-01-16T11:11:07.058Z,986.03
2018-01-16T11:12:07.016Z,986.00
2018-01-16T11:13:06.974Z,986.01
2018-01-16T11:14:06.932Z,985.98
2018-01-16T11:15:06.891Z,985.96
2018-01-16T11:16:06.850Z,986.03
2018-01-16T11:17:06.814Z,985.94
2018-01-16T11:18:06.777Z,985.96
2018-01-16T11:19:06.729Z,985.93
2018-01-16T11:20:06.690Z,985.92
2018-01-16T11:21:06.650Z,985.86
2018-01-16T11:22:06.610Z,985.87
2018-01-16T11:23:06.572Z,985.85
2018-01-16T11:24:06.531Z,985.83
2018-01-16T11:25:06.490Z,985.81
2018-01-16T11:26:06.466Z,985.76
2018-01-16T11:27:06.422Z,985.78
2018-01-16T11:28:06.372Z,985.87
2018-01-16T11:29:06.329Z,985.85
2018-01-16T11:30:06.300Z,985.77
2018-01-16T11:31:06.318Z,985.79
2018-01-16T11:32:06.211Z,985.75
2018-01-16T11:33:06.173Z,985.69
2018-01-16T11:34:06.301Z,985.67
2018-01-16T11:35:06.102Z,985.60
2018-01-16T11:36:06.055Z,985.61
2018-01-16T11:37:06.071Z,985.62
2018-01-16T11:38:05.979Z,985.56
2018-01-16T11:39:05.940Z,985.55
2018-01-16T11:40:05.897Z,985.50
2018-01-16T11:41:05.866Z,985.49
2018-01-16T11:42:05.820Z,985.47
2018-01-16T11:43:05.774Z,985.48
2018-01-16T11:44:05.737Z,985.45
2018-01-16T11:45:05.697Z,985.46
2018-01-16T11:46:05.656Z,985.43
2018-01-16T11:47:05.614Z,985.44
2018-01-16T11:48:05.598Z,985.39
2018-01-16T11:49:05.546Z,985.44
2018-01-16T11:50:05.501Z,985.40
2018-01-16T11:51:05.460Z,985.39
2018-01-16T11:52:05.418Z,985.40
2018-01-16T11:53:05.381Z,985.37
2018-01-16T11:54:05.349Z,985.39
2018-01-16T11:55:05.306Z,985.37
2018-01-16T11:56:05.477Z,985.36
2018-01-16T11:57:05.222Z,985.37
2018-01-16T11:58:05.191Z,985.39
2018-01-16T11:59:05.163Z,985.36
2018-01-16T12:00:05.102Z,985.36
2018-01-16T12:01:05.061Z,985.33
2018-01-16T12:02:05.023Z,985.35
2018-01-16T12:03:04.980Z,985.33
2018-01-16T12:04:04.948Z,985.36
2018-01-16T12:05:04.938Z,985.29
2018-01-16T12:06:04.858Z,985.29
2018-01-16T12:07:04.827Z,985.23
2018-01-16T12:08:04.790Z,985.27
2018-01-16T12:09:04.741Z,985.21
2018-01-16T12:10:04.711Z,985.16
2018-01-16T12:11:04.672Z,985.10
2018-01-16T12:12:04.623Z,985.07
2018-01-16T12:13:04.586Z,985.03
2018-01-16T12:14:04.553Z,985.02
2018-01-16T12:15:04.672Z,985.01
2018-01-16T12:16:04.484Z,985.03
2018-01-16T12:17:04.426Z,985.01
2018-01-16T12:18:04.382Z,985.09
2018-01-16T12:19:04.362Z,985.05
2018-01-16T12:20:04.306Z,985.09
2018-01-16T12:21:04.262Z,985.09
2018-01-16T12:22:04.221Z,985.07
2018-01-16T12:23:04.202Z,985.11
2018-01-16T12:24:04.198Z,985.12
2018-01-16T12:25:04.113Z,985.10
2018-01-16T12:26:04.062Z,985.09
2018-01-16T12:27:04.032Z,985.02
2018-01-16T12:28:03.983Z,985.02